sensor_id;sensor_type;location;lat;lon;timestamp;P1;durP1;ratioP1;P2;durP2;ratioP2
3849;SDS011;1940;51.052;13.678;2022-10-22T00:00:52;39.83;;;19.30;;
3849;SDS011;1940;51.052;13.678;2022-10-22T00:03:18;44.10;;;19.47;;
3849;SDS011;1940;51.052;13.678;2022-10-22T00:05:43;44.17;;;20.10;;
3849;SDS011;1940;51.052;13.678;2022-10-22T00:08:09;41.50;;;20.30;;
3849;SDS011;1940;51.052;13.678;2022-10-22T00:10:36;42.00;;;20.00;;
3849;SDS011;1940;51.052;13.678;2022-10-22T00:13:02;41.73;;;20.30;;
3849;SDS011;1940;51.052;13.678;2022-10-22T00:15:28;39.00;;;18.83;;
3849;SDS011;1940;51.052;13.678;2022-10-22T00:17:54;41.67;;;18.83;;
3849;SDS011;1940;51.052;13.678;2022-10-22T00:20:19;40.07;;;17.77;;
3849;SDS011;1940;51.052;13.678;2022-10-22T00:22:45;44.20;;;18.97;;
3849;SDS011;1940;51.052;13.678;2022-10-22T00:25:10;41.47;;;19.83;;
3849;SDS011;1940;51.052;13.678;2022-10-22T00:27:36;46.53;;;20.30;;
3849;SDS011;1940;51.052;13.678;2022-10-22T00:30:01;44.53;;;19.20;;
3849;SDS011;1940;51.052;13.678;2022-10-22T00:32:27;44.80;;;19.67;;
3849;SDS011;1940;51.052;13.678;2022-10-22T00:34:52;38.70;;;18.97;;
3849;SDS011;1940;51.052;13.678;2022-10-22T00:37:18;40.47;;;19.40;;
3849;SDS011;1940;51.052;13.678;2022-10-22T00:39:43;40.73;;;19.03;;
3849;SDS011;1940;51.052;13.678;2022-10-22T00:42:11;40.87;;;18.53;;
3849;SDS011;1940;51.052;13.678;2022-10-22T00:47:30;45.53;;;20.00;;
3849;SDS011;1940;51.052;13.678;2022-10-22T00:50:03;45.37;;;20.83;;
3849;SDS011;1940;51.052;13.678;2022-10-22T00:52:31;41.73;;;19.97;;
3849;SDS011;1940;51.052;13.678;2022-10-22T00:54:57;41.00;;;20.47;;
3849;SDS011;1940;51.052;13.678;2022-10-22T00:57:24;39.77;;;19.57;;
3849;SDS011;1940;51.052;13.678;2022-10-22T00:59:50;42.73;;;20.60;;
3849;SDS011;1940;51.052;13.678;2022-10-22T01:02:15;40.83;;;19.87;;
3849;SDS011;1940;51.052;13.678;2022-10-22T01:04:41;43.70;;;19.50;;
3849;SDS011;1940;51.052;13.678;2022-10-22T01:07:10;43.10;;;20.83;;
3849;SDS011;1940;51.052;13.678;2022-10-22T01:12:52;42.97;;;20.53;;
3849;SDS011;1940;51.052;13.678;2022-10-22T01:15:36;47.33;;;21.70;;
3849;SDS011;1940;51.052;13.678;2022-10-22T01:18:23;41.10;;;20.10;;
3849;SDS011;1940;51.052;13.678;2022-10-22T01:21:22;45.67;;;20.00;;
3849;SDS011;1940;51.052;13.678;2022-10-22T01:24:08;42.87;;;20.03;;
3849;SDS011;1940;51.052;13.678;2022-10-22T01:29:46;44.47;;;20.93;;
3849;SDS011;1940;51.052;13.678;2022-10-22T01:32:19;46.17;;;21.00;;
3849;SDS011;1940;51.052;13.678;2022-10-22T01:34:54;42.30;;;20.83;;
3849;SDS011;1940;51.052;13.678;2022-10-22T01:37:32;43.53;;;20.57;;
3849;SDS011;1940;51.052;13.678;2022-10-22T01:40:02;41.60;;;20.10;;
3849;SDS011;1940;51.052;13.678;2022-10-22T01:42:31;44.87;;;21.30;;
3849;SDS011;1940;51.052;13.678;2022-10-22T01:44:56;41.67;;;20.00;;
3849;SDS011;1940;51.052;13.678;2022-10-22T01:50:11;47.27;;;20.70;;
3849;SDS011;1940;51.052;13.678;2022-10-22T01:53:04;43.77;;;19.60;;
3849;SDS011;1940;51.052;13.678;2022-10-22T01:55:45;50.17;;;23.40;;
3849;SDS011;1940;51.052;13.678;2022-10-22T01:58:35;45.23;;;18.93;;
3849;SDS011;1940;51.052;13.678;2022-10-22T02:01:30;47.13;;;21.33;;
3849;SDS011;1940;51.052;13.678;2022-10-22T02:04:22;40.40;;;20.63;;
3849;SDS011;1940;51.052;13.678;2022-10-22T02:06:53;42.27;;;19.53;;
3849;SDS011;1940;51.052;13.678;2022-10-22T02:09:24;40.80;;;20.30;;
3849;SDS011;1940;51.052;13.678;2022-10-22T02:11:52;43.20;;;20.27;;
3849;SDS011;1940;51.052;13.678;2022-10-22T02:14:19;40.47;;;21.20;;
3849;SDS011;1940;51.052;13.678;2022-10-22T02:16:46;47.27;;;21.70;;
3849;SDS011;1940;51.052;13.678;2022-10-22T02:19:18;43.80;;;21.47;;
3849;SDS011;1940;51.052;13.678;2022-10-22T02:21:52;46.73;;;20.87;;
3849;SDS011;1940;51.052;13.678;2022-10-22T02:24:18;45.57;;;20.30;;
3849;SDS011;1940;51.052;13.678;2022-10-22T02:26:47;43.10;;;20.07;;
3849;SDS011;1940;51.052;13.678;2022-10-22T02:29:18;41.20;;;20.87;;
3849;SDS011;1940;51.052;13.678;2022-10-22T02:31:49;46.23;;;21.23;;
3849;SDS011;1940;51.052;13.678;2022-10-22T02:34:18;45.50;;;21.50;;
3849;SDS011;1940;51.052;13.678;2022-10-22T02:36:48;43.03;;;20.50;;
3849;SDS011;1940;51.052;13.678;2022-10-22T02:39:16;48.67;;;21.23;;
3849;SDS011;1940;51.052;13.678;2022-10-22T02:41:44;45.97;;;21.07;;
3849;SDS011;1940;51.052;13.678;2022-10-22T02:44:10;43.33;;;20.47;;
3849;SDS011;1940;51.052;13.678;2022-10-22T02:46:36;48.73;;;22.07;;
3849;SDS011;1940;51.052;13.678;2022-10-22T02:49:03;43.20;;;21.30;;
3849;SDS011;1940;51.052;13.678;2022-10-22T02:51:29;45.90;;;21.40;;
3849;SDS011;1940;51.052;13.678;2022-10-22T02:53:54;47.97;;;20.57;;
3849;SDS011;1940;51.052;13.678;2022-10-22T02:56:20;48.00;;;21.90;;
3849;SDS011;1940;51.052;13.678;2022-10-22T02:58:45;45.43;;;21.90;;
3849;SDS011;1940;51.052;13.678;2022-10-22T03:01:11;50.90;;;21.07;;
3849;SDS011;1940;51.052;13.678;2022-10-22T03:03:37;40.27;;;20.73;;
3849;SDS011;1940;51.052;13.678;2022-10-22T03:06:02;42.03;;;21.10;;
3849;SDS011;1940;51.052;13.678;2022-10-22T03:08:28;42.60;;;20.17;;
3849;SDS011;1940;51.052;13.678;2022-10-22T03:10:53;42.90;;;21.03;;
3849;SDS011;1940;51.052;13.678;2022-10-22T03:13:19;50.60;;;21.70;;
3849;SDS011;1940;51.052;13.678;2022-10-22T03:15:46;40.03;;;20.67;;
3849;SDS011;1940;51.052;13.678;2022-10-22T03:18:13;44.53;;;20.50;;
3849;SDS011;1940;51.052;13.678;2022-10-22T03:20:38;44.87;;;21.50;;
3849;SDS011;1940;51.052;13.678;2022-10-22T03:23:04;44.97;;;19.53;;
3849;SDS011;1940;51.052;13.678;2022-10-22T03:25:30;40.07;;;19.60;;
3849;SDS011;1940;51.052;13.678;2022-10-22T03:27:59;43.77;;;20.40;;
3849;SDS011;1940;51.052;13.678;2022-10-22T03:30:28;44.03;;;20.93;;
3849;SDS011;1940;51.052;13.678;2022-10-22T03:32:53;41.97;;;19.40;;
3849;SDS011;1940;51.052;13.678;2022-10-22T03:35:19;40.57;;;19.70;;
3849;SDS011;1940;51.052;13.678;2022-10-22T03:37:44;45.57;;;20.10;;
3849;SDS011;1940;51.052;13.678;2022-10-22T03:40:10;40.43;;;20.83;;
3849;SDS011;1940;51.052;13.678;2022-10-22T03:42:37;35.63;;;18.60;;
3849;SDS011;1940;51.052;13.678;2022-10-22T03:45:03;42.27;;;20.37;;
3849;SDS011;1940;51.052;13.678;2022-10-22T03:47:29;42.67;;;19.50;;
3849;SDS011;1940;51.052;13.678;2022-10-22T03:49:55;38.93;;;19.13;;
3849;SDS011;1940;51.052;13.678;2022-10-22T03:52:20;41.60;;;18.93;;
3849;SDS011;1940;51.052;13.678;2022-10-22T03:54:46;37.87;;;19.10;;
3849;SDS011;1940;51.052;13.678;2022-10-22T03:57:11;39.90;;;20.17;;
3849;SDS011;1940;51.052;13.678;2022-10-22T03:59:38;38.50;;;18.33;;
3849;SDS011;1940;51.052;13.678;2022-10-22T04:02:07;38.33;;;18.20;;
3849;SDS011;1940;51.052;13.678;2022-10-22T04:04:33;41.23;;;18.70;;
3849;SDS011;1940;51.052;13.678;2022-10-22T04:07:00;42.97;;;19.67;;
3849;SDS011;1940;51.052;13.678;2022-10-22T04:09:25;41.60;;;19.70;;
3849;SDS011;1940;51.052;13.678;2022-10-22T04:11:51;39.90;;;19.43;;
3849;SDS011;1940;51.052;13.678;2022-10-22T04:14:16;37.77;;;19.10;;
3849;SDS011;1940;51.052;13.678;2022-10-22T04:16:42;43.33;;;19.43;;
3849;SDS011;1940;51.052;13.678;2022-10-22T04:19:07;42.13;;;18.27;;
3849;SDS011;1940;51.052;13.678;2022-10-22T04:21:33;37.67;;;18.47;;
3849;SDS011;1940;51.052;13.678;2022-10-22T04:23:59;39.57;;;18.30;;
3849;SDS011;1940;51.052;13.678;2022-10-22T04:26:25;47.70;;;20.30;;
3849;SDS011;1940;51.052;13.678;2022-10-22T04:28:51;43.47;;;19.17;;
3849;SDS011;1940;51.052;13.678;2022-10-22T04:31:18;39.87;;;18.87;;
3849;SDS011;1940;51.052;13.678;2022-10-22T04:33:45;40.07;;;18.07;;
3849;SDS011;1940;51.052;13.678;2022-10-22T04:36:12;39.73;;;18.10;;
3849;SDS011;1940;51.052;13.678;2022-10-22T04:38:39;41.50;;;19.20;;
3849;SDS011;1940;51.052;13.678;2022-10-22T04:41:13;41.30;;;19.20;;
3849;SDS011;1940;51.052;13.678;2022-10-22T04:43:40;41.73;;;19.50;;
3849;SDS011;1940;51.052;13.678;2022-10-22T04:46:07;41.33;;;19.87;;
3849;SDS011;1940;51.052;13.678;2022-10-22T04:48:34;43.63;;;19.57;;
3849;SDS011;1940;51.052;13.678;2022-10-22T04:51:00;47.70;;;21.80;;
3849;SDS011;1940;51.052;13.678;2022-10-22T04:53:26;38.00;;;19.77;;
3849;SDS011;1940;51.052;13.678;2022-10-22T04:55:51;42.10;;;20.33;;
3849;SDS011;1940;51.052;13.678;2022-10-22T04:58:17;44.10;;;20.67;;
3849;SDS011;1940;51.052;13.678;2022-10-22T05:00:43;45.90;;;21.63;;
3849;SDS011;1940;51.052;13.678;2022-10-22T05:03:08;40.30;;;19.60;;
3849;SDS011;1940;51.052;13.678;2022-10-22T05:05:34;42.60;;;19.83;;
3849;SDS011;1940;51.052;13.678;2022-10-22T05:07:59;42.27;;;20.13;;
3849;SDS011;1940;51.052;13.678;2022-10-22T05:10:25;45.17;;;21.93;;
3849;SDS011;1940;51.052;13.678;2022-10-22T05:12:50;54.97;;;24.30;;
3849;SDS011;1940;51.052;13.678;2022-10-22T05:15:16;50.37;;;23.03;;
3849;SDS011;1940;51.052;13.678;2022-10-22T05:17:41;49.83;;;23.10;;
3849;SDS011;1940;51.052;13.678;2022-10-22T05:20:07;45.10;;;21.07;;
3849;SDS011;1940;51.052;13.678;2022-10-22T05:22:33;42.53;;;20.23;;
3849;SDS011;1940;51.052;13.678;2022-10-22T05:24:59;44.20;;;20.73;;
3849;SDS011;1940;51.052;13.678;2022-10-22T05:27:24;41.97;;;20.70;;
3849;SDS011;1940;51.052;13.678;2022-10-22T05:29:50;47.30;;;21.37;;
3849;SDS011;1940;51.052;13.678;2022-10-22T05:32:16;38.10;;;19.37;;
3849;SDS011;1940;51.052;13.678;2022-10-22T05:34:42;37.67;;;19.03;;
3849;SDS011;1940;51.052;13.678;2022-10-22T05:37:07;42.73;;;19.43;;
3849;SDS011;1940;51.052;13.678;2022-10-22T05:39:33;40.37;;;19.27;;
3849;SDS011;1940;51.052;13.678;2022-10-22T05:42:00;42.43;;;19.50;;
3849;SDS011;1940;51.052;13.678;2022-10-22T05:44:26;37.60;;;20.37;;
3849;SDS011;1940;51.052;13.678;2022-10-22T05:46:52;49.43;;;19.77;;
3849;SDS011;1940;51.052;13.678;2022-10-22T05:49:18;36.20;;;18.20;;
3849;SDS011;1940;51.052;13.678;2022-10-22T05:51:43;40.13;;;18.80;;
3849;SDS011;1940;51.052;13.678;2022-10-22T05:54:10;43.90;;;19.83;;
3849;SDS011;1940;51.052;13.678;2022-10-22T05:56:43;43.50;;;20.17;;
3849;SDS011;1940;51.052;13.678;2022-10-22T05:59:09;42.63;;;19.63;;
3849;SDS011;1940;51.052;13.678;2022-10-22T06:01:35;42.50;;;20.47;;
3849;SDS011;1940;51.052;13.678;2022-10-22T06:04:03;39.47;;;19.83;;
3849;SDS011;1940;51.052;13.678;2022-10-22T06:09:02;40.43;;;19.53;;
3849;SDS011;1940;51.052;13.678;2022-10-22T06:11:34;40.77;;;19.83;;
3849;SDS011;1940;51.052;13.678;2022-10-22T06:13:59;37.97;;;18.40;;
3849;SDS011;1940;51.052;13.678;2022-10-22T06:16:27;39.83;;;18.67;;
3849;SDS011;1940;51.052;13.678;2022-10-22T06:18:53;51.80;;;20.10;;
3849;SDS011;1940;51.052;13.678;2022-10-22T06:21:19;38.73;;;18.30;;
3849;SDS011;1940;51.052;13.678;2022-10-22T06:23:45;40.23;;;18.80;;
3849;SDS011;1940;51.052;13.678;2022-10-22T06:26:10;37.23;;;18.87;;
3849;SDS011;1940;51.052;13.678;2022-10-22T06:28:36;36.73;;;19.53;;
3849;SDS011;1940;51.052;13.678;2022-10-22T06:31:02;36.20;;;19.00;;
3849;SDS011;1940;51.052;13.678;2022-10-22T06:33:30;46.00;;;19.30;;
3849;SDS011;1940;51.052;13.678;2022-10-22T06:36:06;35.30;;;18.87;;
3849;SDS011;1940;51.052;13.678;2022-10-22T06:38:33;35.90;;;18.00;;
3849;SDS011;1940;51.052;13.678;2022-10-22T06:41:02;38.30;;;18.40;;
3849;SDS011;1940;51.052;13.678;2022-10-22T06:43:30;40.00;;;18.60;;
3849;SDS011;1940;51.052;13.678;2022-10-22T06:45:59;38.70;;;18.80;;
3849;SDS011;1940;51.052;13.678;2022-10-22T06:48:26;46.13;;;20.10;;
3849;SDS011;1940;51.052;13.678;2022-10-22T06:50:52;37.23;;;19.30;;
3849;SDS011;1940;51.052;13.678;2022-10-22T06:53:17;40.33;;;19.57;;
3849;SDS011;1940;51.052;13.678;2022-10-22T06:55:43;40.13;;;18.10;;
3849;SDS011;1940;51.052;13.678;2022-10-22T06:58:09;41.17;;;19.37;;
3849;SDS011;1940;51.052;13.678;2022-10-22T07:00:34;37.40;;;19.03;;
3849;SDS011;1940;51.052;13.678;2022-10-22T07:03:00;38.83;;;19.30;;
3849;SDS011;1940;51.052;13.678;2022-10-22T07:05:25;41.70;;;19.60;;
3849;SDS011;1940;51.052;13.678;2022-10-22T07:07:51;45.20;;;19.80;;
3849;SDS011;1940;51.052;13.678;2022-10-22T07:10:16;36.33;;;18.00;;
3849;SDS011;1940;51.052;13.678;2022-10-22T07:12:42;41.93;;;19.00;;
3849;SDS011;1940;51.052;13.678;2022-10-22T07:15:08;46.40;;;20.00;;
3849;SDS011;1940;51.052;13.678;2022-10-22T07:17:33;38.70;;;17.63;;
3849;SDS011;1940;51.052;13.678;2022-10-22T07:19:59;35.27;;;18.23;;
3849;SDS011;1940;51.052;13.678;2022-10-22T07:22:25;38.23;;;17.23;;
3849;SDS011;1940;51.052;13.678;2022-10-22T07:24:51;32.43;;;17.60;;
3849;SDS011;1940;51.052;13.678;2022-10-22T07:27:17;40.13;;;18.53;;
3849;SDS011;1940;51.052;13.678;2022-10-22T07:29:42;33.77;;;18.40;;
3849;SDS011;1940;51.052;13.678;2022-10-22T07:32:08;36.27;;;19.40;;
3849;SDS011;1940;51.052;13.678;2022-10-22T07:34:33;37.87;;;18.50;;
3849;SDS011;1940;51.052;13.678;2022-10-22T07:36:59;34.03;;;17.33;;
3849;SDS011;1940;51.052;13.678;2022-10-22T07:39:24;36.27;;;19.47;;
3849;SDS011;1940;51.052;13.678;2022-10-22T07:41:50;39.10;;;17.73;;
3849;SDS011;1940;51.052;13.678;2022-10-22T07:44:16;36.17;;;17.70;;
3849;SDS011;1940;51.052;13.678;2022-10-22T07:46:42;38.83;;;18.73;;
3849;SDS011;1940;51.052;13.678;2022-10-22T07:49:07;36.70;;;19.00;;
3849;SDS011;1940;51.052;13.678;2022-10-22T07:51:33;41.57;;;18.20;;
3849;SDS011;1940;51.052;13.678;2022-10-22T07:53:58;37.30;;;18.40;;
3849;SDS011;1940;51.052;13.678;2022-10-22T07:56:24;32.40;;;17.27;;
3849;SDS011;1940;51.052;13.678;2022-10-22T07:58:49;38.40;;;19.17;;
3849;SDS011;1940;51.052;13.678;2022-10-22T08:01:15;40.20;;;19.17;;
3849;SDS011;1940;51.052;13.678;2022-10-22T08:03:41;39.60;;;19.20;;
3849;SDS011;1940;51.052;13.678;2022-10-22T08:06:07;28.83;;;13.90;;
3849;SDS011;1940;51.052;13.678;2022-10-22T08:08:33;22.30;;;11.50;;
3849;SDS011;1940;51.052;13.678;2022-10-22T08:10:59;17.17;;;9.90;;
3849;SDS011;1940;51.052;13.678;2022-10-22T08:13:26;6.47;;;3.57;;
3849;SDS011;1940;51.052;13.678;2022-10-22T08:15:54;7.67;;;4.23;;
3849;SDS011;1940;51.052;13.678;2022-10-22T08:18:20;8.33;;;4.60;;
3849;SDS011;1940;51.052;13.678;2022-10-22T08:20:46;10.07;;;5.10;;
3849;SDS011;1940;51.052;13.678;2022-10-22T08:23:11;8.17;;;4.57;;
3849;SDS011;1940;51.052;13.678;2022-10-22T08:25:40;9.43;;;5.27;;
3849;SDS011;1940;51.052;13.678;2022-10-22T08:28:06;10.23;;;5.60;;
3849;SDS011;1940;51.052;13.678;2022-10-22T08:30:31;3.93;;;2.70;;
3849;SDS011;1940;51.052;13.678;2022-10-22T08:32:58;3.33;;;2.80;;
3849;SDS011;1940;51.052;13.678;2022-10-22T08:35:23;6.23;;;2.67;;
3849;SDS011;1940;51.052;13.678;2022-10-22T08:37:49;6.60;;;3.23;;
3849;SDS011;1940;51.052;13.678;2022-10-22T08:40:49;4.73;;;3.60;;
3849;SDS011;1940;51.052;13.678;2022-10-22T08:43:14;11.23;;;4.93;;
3849;SDS011;1940;51.052;13.678;2022-10-22T08:46:23;6.20;;;3.20;;
3849;SDS011;1940;51.052;13.678;2022-10-22T08:48:53;5.20;;;2.90;;
3849;SDS011;1940;51.052;13.678;2022-10-22T08:51:22;5.13;;;3.17;;
3849;SDS011;1940;51.052;13.678;2022-10-22T08:54:02;5.80;;;3.20;;
3849;SDS011;1940;51.052;13.678;2022-10-22T08:56:30;4.20;;;3.10;;
3849;SDS011;1940;51.052;13.678;2022-10-22T08:59:00;4.10;;;2.90;;
3849;SDS011;1940;51.052;13.678;2022-10-22T09:01:44;5.23;;;2.60;;
3849;SDS011;1940;51.052;13.678;2022-10-22T09:04:15;4.10;;;2.60;;
3849;SDS011;1940;51.052;13.678;2022-10-22T09:07:02;5.50;;;2.87;;
3849;SDS011;1940;51.052;13.678;2022-10-22T09:09:32;15.57;;;8.97;;
3849;SDS011;1940;51.052;13.678;2022-10-22T09:12:04;12.00;;;6.63;;
3849;SDS011;1940;51.052;13.678;2022-10-22T09:14:31;11.60;;;6.97;;
3849;SDS011;1940;51.052;13.678;2022-10-22T09:19:58;14.17;;;8.07;;
3849;SDS011;1940;51.052;13.678;2022-10-22T09:25:17;38.20;;;22.43;;
3849;SDS011;1940;51.052;13.678;2022-10-22T09:27:43;34.23;;;20.00;;
3849;SDS011;1940;51.052;13.678;2022-10-22T09:30:23;37.57;;;23.90;;
3849;SDS011;1940;51.052;13.678;2022-10-22T09:32:54;34.97;;;21.43;;
3849;SDS011;1940;51.052;13.678;2022-10-22T09:35:25;39.70;;;23.63;;
3849;SDS011;1940;51.052;13.678;2022-10-22T09:37:53;37.80;;;22.20;;
3849;SDS011;1940;51.052;13.678;2022-10-22T09:40:20;31.00;;;19.00;;
3849;SDS011;1940;51.052;13.678;2022-10-22T09:42:47;28.00;;;18.00;;
3849;SDS011;1940;51.052;13.678;2022-10-22T09:45:15;28.13;;;16.23;;
3849;SDS011;1940;51.052;13.678;2022-10-22T09:47:47;22.50;;;11.63;;
3849;SDS011;1940;51.052;13.678;2022-10-22T09:50:21;18.70;;;10.70;;
3849;SDS011;1940;51.052;13.678;2022-10-22T09:53:10;18.90;;;11.40;;
3849;SDS011;1940;51.052;13.678;2022-10-22T09:55:44;16.00;;;10.47;;
3849;SDS011;1940;51.052;13.678;2022-10-22T09:58:16;17.77;;;9.87;;
3849;SDS011;1940;51.052;13.678;2022-10-22T10:00:43;17.10;;;8.90;;
3849;SDS011;1940;51.052;13.678;2022-10-22T10:03:15;15.03;;;9.53;;
3849;SDS011;1940;51.052;13.678;2022-10-22T10:05:44;12.77;;;7.87;;
3849;SDS011;1940;51.052;13.678;2022-10-22T10:08:13;14.97;;;8.53;;
3849;SDS011;1940;51.052;13.678;2022-10-22T10:10:41;11.20;;;6.73;;
3849;SDS011;1940;51.052;13.678;2022-10-22T10:13:13;8.70;;;6.23;;
3849;SDS011;1940;51.052;13.678;2022-10-22T10:16:00;10.93;;;7.83;;
3849;SDS011;1940;51.052;13.678;2022-10-22T10:21:30;11.70;;;7.83;;
3849;SDS011;1940;51.052;13.678;2022-10-22T10:24:36;13.57;;;8.87;;
3849;SDS011;1940;51.052;13.678;2022-10-22T10:27:27;11.40;;;7.73;;
3849;SDS011;1940;51.052;13.678;2022-10-22T10:30:01;11.73;;;7.43;;
3849;SDS011;1940;51.052;13.678;2022-10-22T10:35:19;10.43;;;6.47;;
3849;SDS011;1940;51.052;13.678;2022-10-22T10:38:36;11.57;;;6.50;;
3849;SDS011;1940;51.052;13.678;2022-10-22T10:41:51;6.30;;;4.63;;
3849;SDS011;1940;51.052;13.678;2022-10-22T10:44:08;2.00;;;1.60;;
3849;SDS011;1940;51.052;13.678;2022-10-22T10:46:49;2.70;;;1.10;;
3849;SDS011;1940;51.052;13.678;2022-10-22T10:49:35;1.70;;;1.23;;
3849;SDS011;1940;51.052;13.678;2022-10-22T11:00:19;1.90;;;0.93;;
3849;SDS011;1940;51.052;13.678;2022-10-22T11:05:36;1.40;;;1.00;;
3849;SDS011;1940;51.052;13.678;2022-10-22T11:08:19;1.37;;;1.00;;
3849;SDS011;1940;51.052;13.678;2022-10-22T11:11:11;1.37;;;0.93;;
3849;SDS011;1940;51.052;13.678;2022-10-22T11:13:55;1.10;;;0.80;;
3849;SDS011;1940;51.052;13.678;2022-10-22T11:16:27;1.00;;;0.90;;
3849;SDS011;1940;51.052;13.678;2022-10-22T11:19:22;1.30;;;1.00;;
3849;SDS011;1940;51.052;13.678;2022-10-22T11:24:27;1.20;;;1.00;;
3849;SDS011;1940;51.052;13.678;2022-10-22T11:27:01;3.07;;;1.10;;
3849;SDS011;1940;51.052;13.678;2022-10-22T11:29:42;2.03;;;1.30;;
3849;SDS011;1940;51.052;13.678;2022-10-22T11:32:16;1.20;;;0.93;;
3849;SDS011;1940;51.052;13.678;2022-10-22T11:34:49;2.53;;;1.30;;
3849;SDS011;1940;51.052;13.678;2022-10-22T11:37:18;1.80;;;1.40;;
3849;SDS011;1940;51.052;13.678;2022-10-22T11:42:37;2.80;;;1.40;;
3849;SDS011;1940;51.052;13.678;2022-10-22T11:47:56;2.37;;;1.40;;
3849;SDS011;1940;51.052;13.678;2022-10-22T11:55:56;3.90;;;1.20;;
3849;SDS011;1940;51.052;13.678;2022-10-22T12:06:05;2.50;;;1.20;;
3849;SDS011;1940;51.052;13.678;2022-10-22T12:11:25;1.97;;;1.50;;
3849;SDS011;1940;51.052;13.678;2022-10-22T12:16:39;1.60;;;1.20;;
3849;SDS011;1940;51.052;13.678;2022-10-22T12:21:36;2.30;;;1.60;;
3849;SDS011;1940;51.052;13.678;2022-10-22T12:24:02;1.50;;;1.40;;
3849;SDS011;1940;51.052;13.678;2022-10-22T12:26:30;2.40;;;1.60;;
3849;SDS011;1940;51.052;13.678;2022-10-22T12:28:59;4.47;;;1.60;;
3849;SDS011;1940;51.052;13.678;2022-10-22T12:31:26;2.50;;;1.73;;
3849;SDS011;1940;51.052;13.678;2022-10-22T12:33:58;1.93;;;1.60;;
3849;SDS011;1940;51.052;13.678;2022-10-22T12:36:25;4.27;;;1.80;;
3849;SDS011;1940;51.052;13.678;2022-10-22T12:38:52;2.00;;;1.80;;
3849;SDS011;1940;51.052;13.678;2022-10-22T12:41:18;2.50;;;1.93;;
3849;SDS011;1940;51.052;13.678;2022-10-22T12:43:45;2.47;;;1.80;;
3849;SDS011;1940;51.052;13.678;2022-10-22T12:46:12;1.70;;;1.40;;
3849;SDS011;1940;51.052;13.678;2022-10-22T12:48:41;1.80;;;1.30;;
3849;SDS011;1940;51.052;13.678;2022-10-22T12:51:10;2.43;;;1.30;;
3849;SDS011;1940;51.052;13.678;2022-10-22T12:53:44;1.73;;;1.50;;
3849;SDS011;1940;51.052;13.678;2022-10-22T12:56:13;2.07;;;1.40;;
3849;SDS011;1940;51.052;13.678;2022-10-22T12:58:45;2.40;;;1.43;;
3849;SDS011;1940;51.052;13.678;2022-10-22T13:01:36;1.53;;;1.10;;
3849;SDS011;1940;51.052;13.678;2022-10-22T13:04:16;1.67;;;1.07;;
3849;SDS011;1940;51.052;13.678;2022-10-22T13:06:46;2.60;;;1.20;;
3849;SDS011;1940;51.052;13.678;2022-10-22T13:09:20;1.57;;;1.10;;
3849;SDS011;1940;51.052;13.678;2022-10-22T13:14:25;1.30;;;0.93;;
3849;SDS011;1940;51.052;13.678;2022-10-22T13:19:44;1.93;;;1.00;;
3849;SDS011;1940;51.052;13.678;2022-10-22T13:24:55;1.20;;;1.10;;
3849;SDS011;1940;51.052;13.678;2022-10-22T13:27:23;3.00;;;1.20;;
3849;SDS011;1940;51.052;13.678;2022-10-22T13:29:53;2.33;;;1.37;;
3849;SDS011;1940;51.052;13.678;2022-10-22T13:32:29;15.17;;;1.13;;
3849;SDS011;1940;51.052;13.678;2022-10-22T13:34:58;1.70;;;1.10;;
3849;SDS011;1940;51.052;13.678;2022-10-22T13:37:25;5.23;;;1.30;;
3849;SDS011;1940;51.052;13.678;2022-10-22T13:39:52;1.40;;;1.10;;
3849;SDS011;1940;51.052;13.678;2022-10-22T13:42:18;1.60;;;1.23;;
3849;SDS011;1940;51.052;13.678;2022-10-22T13:44:43;1.50;;;1.10;;
3849;SDS011;1940;51.052;13.678;2022-10-22T13:47:19;1.60;;;1.20;;
3849;SDS011;1940;51.052;13.678;2022-10-22T13:49:52;1.97;;;1.30;;
3849;SDS011;1940;51.052;13.678;2022-10-22T13:55:11;1.90;;;1.20;;
3849;SDS011;1940;51.052;13.678;2022-10-22T13:57:39;1.93;;;0.93;;
3849;SDS011;1940;51.052;13.678;2022-10-22T14:00:11;2.17;;;1.27;;
3849;SDS011;1940;51.052;13.678;2022-10-22T14:02:45;2.37;;;1.03;;
3849;SDS011;1940;51.052;13.678;2022-10-22T14:05:13;1.37;;;1.00;;
3849;SDS011;1940;51.052;13.678;2022-10-22T14:07:40;2.93;;;1.00;;
3849;SDS011;1940;51.052;13.678;2022-10-22T14:10:16;6.10;;;1.10;;
3849;SDS011;1940;51.052;13.678;2022-10-22T14:12:44;1.50;;;0.90;;
3849;SDS011;1940;51.052;13.678;2022-10-22T14:15:10;1.73;;;1.13;;
3849;SDS011;1940;51.052;13.678;2022-10-22T14:17:38;2.30;;;1.30;;
3849;SDS011;1940;51.052;13.678;2022-10-22T14:20:08;2.60;;;1.30;;
3849;SDS011;1940;51.052;13.678;2022-10-22T14:22:43;1.63;;;1.10;;
3849;SDS011;1940;51.052;13.678;2022-10-22T14:25:11;11.97;;;1.30;;
3849;SDS011;1940;51.052;13.678;2022-10-22T14:27:39;1.47;;;1.30;;
3849;SDS011;1940;51.052;13.678;2022-10-22T14:30:05;9.27;;;1.37;;
3849;SDS011;1940;51.052;13.678;2022-10-22T14:32:31;3.00;;;1.27;;
3849;SDS011;1940;51.052;13.678;2022-10-22T14:34:57;1.50;;;1.10;;
3849;SDS011;1940;51.052;13.678;2022-10-22T14:37:23;3.03;;;1.70;;
3849;SDS011;1940;51.052;13.678;2022-10-22T14:39:49;1.60;;;1.30;;
3849;SDS011;1940;51.052;13.678;2022-10-22T14:42:25;4.23;;;1.40;;
3849;SDS011;1940;51.052;13.678;2022-10-22T14:44:51;2.80;;;1.30;;
3849;SDS011;1940;51.052;13.678;2022-10-22T14:47:16;3.40;;;1.40;;
3849;SDS011;1940;51.052;13.678;2022-10-22T14:49:42;2.53;;;1.20;;
3849;SDS011;1940;51.052;13.678;2022-10-22T14:52:08;4.90;;;2.10;;
3849;SDS011;1940;51.052;13.678;2022-10-22T14:54:33;1.50;;;1.17;;
3849;SDS011;1940;51.052;13.678;2022-10-22T14:56:59;2.43;;;1.50;;
3849;SDS011;1940;51.052;13.678;2022-10-22T14:59:26;2.13;;;1.63;;
3849;SDS011;1940;51.052;13.678;2022-10-22T15:01:52;4.83;;;1.53;;
3849;SDS011;1940;51.052;13.678;2022-10-22T15:04:17;2.40;;;2.10;;
3849;SDS011;1940;51.052;13.678;2022-10-22T15:06:43;9.70;;;7.50;;
3849;SDS011;1940;51.052;13.678;2022-10-22T15:09:08;6.20;;;3.67;;
3849;SDS011;1940;51.052;13.678;2022-10-22T15:11:34;2.40;;;1.60;;
3849;SDS011;1940;51.052;13.678;2022-10-22T15:13:59;2.70;;;2.20;;
3849;SDS011;1940;51.052;13.678;2022-10-22T15:16:25;2.30;;;1.70;;
3849;SDS011;1940;51.052;13.678;2022-10-22T15:18:50;7.63;;;3.90;;
3849;SDS011;1940;51.052;13.678;2022-10-22T15:21:18;12.03;;;6.00;;
3849;SDS011;1940;51.052;13.678;2022-10-22T15:23:45;10.40;;;5.80;;
3849;SDS011;1940;51.052;13.678;2022-10-22T15:26:12;8.80;;;4.57;;
3849;SDS011;1940;51.052;13.678;2022-10-22T15:28:38;6.73;;;4.53;;
3849;SDS011;1940;51.052;13.678;2022-10-22T15:31:05;7.37;;;4.87;;
3849;SDS011;1940;51.052;13.678;2022-10-22T15:33:31;18.63;;;6.60;;
3849;SDS011;1940;51.052;13.678;2022-10-22T15:35:57;6.47;;;5.03;;
3849;SDS011;1940;51.052;13.678;2022-10-22T15:38:32;7.03;;;2.60;;
3849;SDS011;1940;51.052;13.678;2022-10-22T15:41:01;3.93;;;2.30;;
3849;SDS011;1940;51.052;13.678;2022-10-22T15:43:28;2.90;;;2.07;;
3849;SDS011;1940;51.052;13.678;2022-10-22T15:46:06;3.10;;;1.60;;
3849;SDS011;1940;51.052;13.678;2022-10-22T15:48:40;2.10;;;1.60;;
3849;SDS011;1940;51.052;13.678;2022-10-22T15:51:13;1.93;;;1.60;;
3849;SDS011;1940;51.052;13.678;2022-10-22T15:53:40;2.80;;;1.70;;
3849;SDS011;1940;51.052;13.678;2022-10-22T15:56:06;4.40;;;1.50;;
3849;SDS011;1940;51.052;13.678;2022-10-22T15:58:33;4.47;;;1.70;;
3849;SDS011;1940;51.052;13.678;2022-10-22T16:01:03;20.00;;;12.80;;
3849;SDS011;1940;51.052;13.678;2022-10-22T16:03:33;22.90;;;10.70;;
3849;SDS011;1940;51.052;13.678;2022-10-22T16:05:59;7.10;;;4.07;;
3849;SDS011;1940;51.052;13.678;2022-10-22T16:08:25;2.40;;;1.73;;
3849;SDS011;1940;51.052;13.678;2022-10-22T16:10:51;4.30;;;1.67;;
3849;SDS011;1940;51.052;13.678;2022-10-22T16:13:17;3.10;;;1.70;;
3849;SDS011;1940;51.052;13.678;2022-10-22T16:15:45;2.23;;;1.70;;